createdAt,value
2022-10-31T00:00:31.621Z,14.57
2022-10-31T00:03:00.093Z,14.54
2022-10-31T00:05:26.861Z,14.49
2022-10-31T00:07:53.773Z,14.45
2022-10-31T00:10:20.384Z,14.41
2022-10-31T00:12:47.063Z,14.39
2022-10-31T00:15:14.192Z,14.38
2022-10-31T00:17:41.037Z,14.35
2022-10-31T00:20:10.491Z,14.32
2022-10-31T00:22:37.200Z,14.31
2022-10-31T00:25:04.335Z,14.28
2022-10-31T00:27:32.495Z,14.25
2022-10-31T00:29:59.412Z,14.22
2022-10-31T00:32:26.078Z,14.20
2022-10-31T00:34:52.978Z,14.19
2022-10-31T00:37:23.597Z,14.16
2022-10-31T00:39:50.583Z,14.13
2022-10-31T00:42:17.327Z,14.10
2022-10-31T00:44:43.950Z,14.08
2022-10-31T00:47:10.556Z,14.06
2022-10-31T00:49:37.237Z,14.05
2022-10-31T00:52:03.976Z,14.03
2022-10-31T00:54:31.962Z,14.02
2022-10-31T00:56:58.833Z,14.01
2022-10-31T00:59:25.507Z,13.97
2022-10-31T01:01:52.314Z,13.96
2022-10-31T01:04:19.085Z,13.94
2022-10-31T01:06:45.731Z,13.92
2022-10-31T01:09:12.462Z,13.90
2022-10-31T01:11:40.468Z,13.87
2022-10-31T01:14:08.778Z,13.85
2022-10-31T01:16:35.636Z,13.83
2022-10-31T01:19:03.367Z,13.79
2022-10-31T01:21:30.661Z,13.76
2022-10-31T01:23:57.868Z,13.72
2022-10-31T01:26:26.560Z,13.71
2022-10-31T01:28:56.389Z,13.69
2022-10-31T01:31:26.694Z,13.68
2022-10-31T01:33:54.422Z,13.68
2022-10-31T01:36:23.443Z,13.64
2022-10-31T01:38:51.154Z,13.61
2022-10-31T01:41:19.824Z,13.59
2022-10-31T01:43:50.225Z,13.54
2022-10-31T01:46:21.493Z,13.49
2022-10-31T01:48:49.301Z,13.42
2022-10-31T01:51:18.581Z,13.40
2022-10-31T01:53:47.346Z,13.37
2022-10-31T01:56:15.115Z,13.33
2022-10-31T01:58:42.924Z,13.34
2022-10-31T02:01:09.881Z,13.36
2022-10-31T02:03:38.330Z,13.35
2022-10-31T02:06:11.650Z,13.38
2022-10-31T02:08:40.134Z,13.40
2022-10-31T02:11:08.530Z,13.39
2022-10-31T02:13:35.457Z,13.35
2022-10-31T02:16:02.078Z,13.32
2022-10-31T02:18:31.710Z,13.30
2022-10-31T02:21:12.006Z,13.28
2022-10-31T02:24:27.070Z,13.28
2022-10-31T02:27:34.219Z,13.28
2022-10-31T02:30:07.310Z,13.27
2022-10-31T02:32:46.258Z,13.25
2022-10-31T02:35:20.938Z,13.24
2022-10-31T02:37:58.243Z,13.23
2022-10-31T02:40:28.516Z,13.19
2022-10-31T02:43:04.094Z,13.19
2022-10-31T02:45:38.967Z,13.19
2022-10-31T02:48:12.053Z,13.16
2022-10-31T02:50:47.007Z,13.14
2022-10-31T02:53:16.245Z,13.11
2022-10-31T02:55:52.249Z,13.10
2022-10-31T02:58:23.073Z,13.10
2022-10-31T03:01:03.508Z,13.11
2022-10-31T03:03:38.445Z,13.09
2022-10-31T03:06:13.582Z,13.09
2022-10-31T03:08:48.204Z,13.08
2022-10-31T03:11:15.723Z,13.06
2022-10-31T03:13:50.884Z,13.06
2022-10-31T03:16:24.738Z,13.04
2022-10-31T03:18:57.531Z,13.03
2022-10-31T03:21:29.844Z,13.00
2022-10-31T03:23:58.570Z,12.94
2022-10-31T03:26:26.716Z,12.90
2022-10-31T03:28:58.090Z,12.87
2022-10-31T03:31:30.556Z,12.85
2022-10-31T03:34:01.850Z,12.83
2022-10-31T03:36:31.460Z,12.79
2022-10-31T03:39:00.936Z,12.73
2022-10-31T03:41:32.710Z,12.68
2022-10-31T03:44:04.992Z,12.67
2022-10-31T03:46:31.855Z,12.64
2022-10-31T03:49:00.559Z,12.62
2022-10-31T03:51:35.526Z,12.60
2022-10-31T03:54:10.148Z,12.57
2022-10-31T03:56:41.240Z,12.55
2022-10-31T03:59:17.317Z,12.51
2022-10-31T04:01:48.346Z,12.49
2022-10-31T04:04:16.970Z,12.47
2022-10-31T04:06:45.434Z,12.45
2022-10-31T04:09:13.148Z,12.42
2022-10-31T04:11:45.635Z,12.40
2022-10-31T04:14:13.076Z,12.34
2022-10-31T04:16:45.308Z,12.31
2022-10-31T04:19:13.135Z,12.27
2022-10-31T04:21:44.246Z,12.23
2022-10-31T04:24:11.119Z,12.21
2022-10-31T04:26:38.238Z,12.20
2022-10-31T04:29:05.137Z,12.18
2022-10-31T04:31:31.757Z,12.15
2022-10-31T04:33:58.573Z,12.12
2022-10-31T04:36:25.318Z,12.11
2022-10-31T04:38:53.486Z,12.09
2022-10-31T04:41:20.159Z,12.08
2022-10-31T04:43:46.792Z,12.07
2022-10-31T04:46:13.691Z,12.05
2022-10-31T04:48:40.386Z,12.04
2022-10-31T04:51:08.253Z,12.01
2022-10-31T04:53:35.023Z,11.98
2022-10-31T04:56:03.131Z,11.95
2022-10-31T04:58:30.154Z,11.94
2022-10-31T05:00:57.444Z,11.92
2022-10-31T05:03:24.493Z,11.89
2022-10-31T05:05:57.712Z,11.86
2022-10-31T05:08:24.433Z,11.84
2022-10-31T05:10:51.136Z,11.84
2022-10-31T05:15:46.590Z,11.77
2022-10-31T05:18:13.298Z,11.76
2022-10-31T05:20:40.003Z,11.76
2022-10-31T05:23:06.787Z,11.73
2022-10-31T05:25:33.568Z,11.72
2022-10-31T05:28:00.688Z,11.71
2022-10-31T05:30:30.621Z,11.72
2022-10-31T05:32:58.102Z,11.69
2022-10-31T05:35:26.882Z,11.69
2022-10-31T05:37:53.705Z,11.70
2022-10-31T05:40:22.331Z,11.71
2022-10-31T05:42:51.973Z,11.73
2022-10-31T05:45:20.296Z,11.74
2022-10-31T05:47:53.024Z,11.74
2022-10-31T05:50:20.172Z,11.77
2022-10-31T05:52:46.926Z,11.79
2022-10-31T05:55:16.800Z,11.78
2022-10-31T05:57:43.521Z,11.78
2022-10-31T06:00:10.938Z,11.78
2022-10-31T06:02:39.552Z,11.79
2022-10-31T06:05:11.397Z,11.80
2022-10-31T06:07:38.562Z,11.79
2022-10-31T06:10:07.461Z,11.79
2022-10-31T06:12:38.528Z,11.79
2022-10-31T06:15:06.798Z,11.76
2022-10-31T06:17:34.417Z,11.73
2022-10-31T06:20:01.450Z,11.71
2022-10-31T06:22:29.541Z,11.70
2022-10-31T06:24:56.380Z,11.68
2022-10-31T06:27:23.570Z,11.68
2022-10-31T06:29:50.683Z,11.67
2022-10-31T06:32:17.636Z,11.66
2022-10-31T06:34:44.893Z,11.67
2022-10-31T06:37:13.156Z,11.68
2022-10-31T06:39:41.318Z,11.68
2022-10-31T06:42:07.924Z,11.69
2022-10-31T06:44:34.854Z,11.69
2022-10-31T06:47:01.587Z,11.71
2022-10-31T06:49:28.654Z,11.70
2022-10-31T06:51:59.430Z,11.72
2022-10-31T06:54:26.090Z,11.74
2022-10-31T06:56:54.142Z,11.74
2022-10-31T06:59:20.897Z,11.72
2022-10-31T07:01:47.866Z,11.74
2022-10-31T07:04:14.725Z,11.73
2022-10-31T07:06:48.258Z,11.75
2022-10-31T07:09:20.212Z,11.75
2022-10-31T07:11:46.814Z,11.74
2022-10-31T07:14:14.856Z,11.76
2022-10-31T07:16:41.499Z,11.75
2022-10-31T07:19:08.184Z,11.74
2022-10-31T07:21:35.038Z,11.74
2022-10-31T07:24:06.510Z,11.74
2022-10-31T07:26:33.344Z,11.76
2022-10-31T07:29:00.298Z,11.80
2022-10-31T07:31:28.363Z,11.84
2022-10-31T07:33:55.109Z,11.86
2022-10-31T07:36:21.913Z,11.89
2022-10-31T07:38:48.819Z,11.93
2022-10-31T07:41:15.475Z,11.97
2022-10-31T07:43:42.383Z,12.00
2022-10-31T07:46:09.208Z,12.03
2022-10-31T07:48:37.415Z,12.08
2022-10-31T07:51:04.182Z,12.12
2022-10-31T07:53:36.051Z,12.15
2022-10-31T07:56:02.861Z,12.20
2022-10-31T07:58:29.571Z,12.24
2022-10-31T08:00:56.401Z,12.27
2022-10-31T08:03:23.389Z,12.31
2022-10-31T08:05:51.413Z,12.34
2022-10-31T08:08:18.505Z,12.36
2022-10-31T08:10:45.324Z,12.40
2022-10-31T08:13:14.258Z,12.44
2022-10-31T08:15:42.876Z,12.47
2022-10-31T08:18:14.763Z,12.51
2022-10-31T08:20:42.256Z,12.53
2022-10-31T08:23:12.296Z,12.57
2022-10-31T08:25:39.272Z,12.60
2022-10-31T08:28:07.160Z,12.65
2022-10-31T08:30:37.820Z,12.68
2022-10-31T08:33:06.992Z,12.74
2022-10-31T08:35:34.485Z,12.77
2022-10-31T08:38:02.050Z,12.80
2022-10-31T08:40:32.368Z,12.83
2022-10-31T08:43:03.581Z,12.88
2022-10-31T08:45:31.813Z,12.91
2022-10-31T08:48:00.038Z,12.95
2022-10-31T08:50:27.819Z,12.99
2022-10-31T08:53:09.509Z,13.02
2022-10-31T08:55:39.618Z,13.06
2022-10-31T08:58:07.940Z,13.11
2022-10-31T09:00:35.694Z,13.16
2022-10-31T09:03:05.403Z,13.21
2022-10-31T09:05:32.420Z,13.26
2022-10-31T09:08:00.463Z,13.30
2022-10-31T09:10:29.065Z,13.36
2022-10-31T09:12:58.825Z,13.42
2022-10-31T09:15:25.929Z,13.46
2022-10-31T09:17:53.120Z,13.50
2022-10-31T09:20:20.193Z,13.55
2022-10-31T09:22:47.414Z,13.60
2022-10-31T09:25:14.546Z,13.65
2022-10-31T09:27:41.194Z,13.70
2022-10-31T09:30:10.565Z,13.78
2022-10-31T09:32:37.162Z,13.82
2022-10-31T09:35:03.930Z,13.88
2022-10-31T09:37:30.770Z,13.93
2022-10-31T09:39:57.695Z,13.97
2022-10-31T09:42:46.403Z,14.03
2022-10-31T09:45:22.830Z,14.07
2022-10-31T09:48:09.289Z,14.14
2022-10-31T09:50:42.583Z,14.19
2022-10-31T09:53:16.618Z,14.22
2022-10-31T09:55:49.043Z,14.27
2022-10-31T09:58:21.120Z,14.32
2022-10-31T10:00:52.658Z,14.36
2022-10-31T10:03:29.505Z,14.41
2022-10-31T10:06:05.415Z,14.45
2022-10-31T10:08:35.901Z,14.50
2022-10-31T10:11:25.699Z,14.56
2022-10-31T10:14:15.390Z,14.60
2022-10-31T10:16:59.911Z,14.63
2022-10-31T10:19:40.593Z,14.68
2022-10-31T10:22:15.770Z,14.72
2022-10-31T10:25:00.414Z,14.77
2022-10-31T10:27:38.675Z,14.81
2022-10-31T10:30:15.132Z,14.86
2022-10-31T10:32:50.945Z,14.90
2022-10-31T10:35:25.975Z,14.94
2022-10-31T10:38:04.081Z,14.99
2022-10-31T10:40:31.405Z,15.02
2022-10-31T10:43:26.302Z,15.06
2022-10-31T10:46:35.608Z,15.08
2022-10-31T10:49:13.284Z,15.11
2022-10-31T10:52:18.959Z,15.13
2022-10-31T10:54:47.838Z,15.18
2022-10-31T10:57:36.404Z,15.21
2022-10-31T11:00:04.539Z,15.23
2022-10-31T11:02:33.574Z,15.27
2022-10-31T11:05:03.063Z,15.31
2022-10-31T11:07:38.981Z,15.35
2022-10-31T11:10:14.003Z,15.39
2022-10-31T11:12:41.768Z,15.42
2022-10-31T11:15:21.684Z,15.46
2022-10-31T11:17:52.258Z,15.50
2022-10-31T11:20:32.636Z,15.54
2022-10-31T11:23:06.663Z,15.57
2022-10-31T11:25:34.016Z,15.60
2022-10-31T11:28:01.679Z,15.64
2022-10-31T11:30:29.444Z,15.67
2022-10-31T11:32:58.149Z,15.71
2022-10-31T11:35:28.672Z,15.77
2022-10-31T11:38:01.286Z,15.79
2022-10-31T11:40:30.541Z,15.82
2022-10-31T11:42:59.966Z,15.88
2022-10-31T11:45:34.945Z,15.92
2022-10-31T11:48:03.647Z,15.96
2022-10-31T11:50:36.220Z,16.00
2022-10-31T11:53:04.487Z,16.04
2022-10-31T11:55:34.138Z,16.08
2022-10-31T11:58:01.363Z,16.12
2022-10-31T12:00:33.574Z,16.16
2022-10-31T12:03:13.367Z,16.22
2022-10-31T12:05:45.871Z,16.25
2022-10-31T12:08:14.343Z,16.29
2022-10-31T12:10:48.031Z,16.34
2022-10-31T12:13:34.673Z,16.39
2022-10-31T12:16:07.629Z,16.42
2022-10-31T12:19:00.603Z,16.47
2022-10-31T12:21:44.339Z,16.51
2022-10-31T12:24:26.676Z,16.55
2022-10-31T12:27:03.352Z,16.59
2022-10-31T12:29:44.994Z,16.63
2022-10-31T12:32:31.730Z,16.64
2022-10-31T12:35:17.977Z,16.67
2022-10-31T12:38:06.052Z,16.69
2022-10-31T12:40:52.333Z,16.71
2022-10-31T12:43:32.560Z,16.74
2022-10-31T12:46:01.434Z,16.78
2022-10-31T12:48:52.656Z,16.83
2022-10-31T12:51:29.810Z,16.87
2022-10-31T12:54:13.617Z,16.92
2022-10-31T12:56:49.612Z,16.95
2022-10-31T12:59:22.900Z,17.00
2022-10-31T13:01:55.809Z,17.03
2022-10-31T13:04:37.541Z,17.07
2022-10-31T13:07:09.895Z,17.11
2022-10-31T13:09:44.110Z,17.15
2022-10-31T13:12:14.539Z,17.18
2022-10-31T13:14:45.603Z,17.23
2022-10-31T13:17:22.162Z,17.28
2022-10-31T13:19:51.494Z,17.33
2022-10-31T13:22:27.448Z,17.36
2022-10-31T13:25:00.750Z,17.39
2022-10-31T13:27:32.206Z,17.40
2022-10-31T13:30:06.751Z,17.44
2022-10-31T13:32:40.588Z,17.45
2022-10-31T13:35:16.184Z,17.47
2022-10-31T13:37:54.656Z,17.48
2022-10-31T13:40:35.272Z,17.48
2022-10-31T13:43:10.454Z,17.49
2022-10-31T13:45:48.435Z,17.50
2022-10-31T13:48:21.365Z,17.52
2022-10-31T13:50:59.484Z,17.52
2022-10-31T13:53:38.075Z,17.53
2022-10-31T13:56:12.510Z,17.52
2022-10-31T13:58:39.333Z,17.52
2022-10-31T14:01:18.559Z,17.54
2022-10-31T14:04:10.970Z,17.55
2022-10-31T14:06:41.486Z,17.57
2022-10-31T14:09:23.846Z,17.54
2022-10-31T14:11:55.627Z,17.54
2022-10-31T14:14:29.702Z,17.55
2022-10-31T14:16:59.042Z,17.55
2022-10-31T14:19:27.161Z,17.56
2022-10-31T14:21:54.073Z,17.57
2022-10-31T14:24:33.986Z,17.57
2022-10-31T14:27:04.251Z,17.56
2022-10-31T14:29:32.645Z,17.54
2022-10-31T14:32:14.425Z,17.54
2022-10-31T14:34:43.074Z,17.54
2022-10-31T14:37:26.542Z,17.51
2022-10-31T14:40:06.346Z,17.50
2022-10-31T14:42:48.461Z,17.50
2022-10-31T14:45:26.585Z,17.48
2022-10-31T14:48:08.205Z,17.47
2022-10-31T14:50:47.654Z,17.47
2022-10-31T14:53:19.439Z,17.46
2022-10-31T14:55:50.485Z,17.46
2022-10-31T14:58:22.671Z,17.45
2022-10-31T15:00:51.903Z,17.45
2022-10-31T15:03:26.567Z,17.44
2022-10-31T15:05:57.540Z,17.42
2022-10-31T15:08:38.756Z,17.43
2022-10-31T15:11:12.405Z,17.42
2022-10-31T15:13:46.500Z,17.40
2022-10-31T15:16:15.632Z,17.39
2022-10-31T15:18:50.024Z,17.36
2022-10-31T15:21:17.971Z,17.34
2022-10-31T15:23:45.537Z,17.31
2022-10-31T15:26:19.398Z,17.30
2022-10-31T15:28:58.051Z,17.27
2022-10-31T15:31:24.785Z,17.27
2022-10-31T15:33:52.594Z,17.25
2022-10-31T15:36:24.100Z,17.23
2022-10-31T15:38:57.087Z,17.22
2022-10-31T15:41:35.392Z,17.21
2022-10-31T15:44:08.469Z,17.18
2022-10-31T15:46:35.281Z,17.17
2022-10-31T15:49:02.076Z,17.16
2022-10-31T15:51:35.470Z,17.15
2022-10-31T15:54:02.530Z,17.14
2022-10-31T15:56:31.722Z,17.14
2022-10-31T15:59:01.420Z,17.12
2022-10-31T16:01:31.531Z,17.12
2022-10-31T16:04:00.773Z,17.11
2022-10-31T16:06:27.979Z,17.10
2022-10-31T16:08:56.270Z,17.10
2022-10-31T16:11:26.185Z,17.07
2022-10-31T16:13:55.669Z,17.06
2022-10-31T16:16:38.667Z,17.04
2022-10-31T16:19:18.768Z,17.03
2022-10-31T16:21:46.340Z,16.99
2022-10-31T16:24:19.942Z,16.97
2022-10-31T16:26:51.291Z,16.96
2022-10-31T16:29:34.168Z,16.94
2022-10-31T16:32:01.060Z,16.92
2022-10-31T16:34:30.461Z,16.89
2022-10-31T16:36:57.238Z,16.87
2022-10-31T16:39:24.052Z,16.84
2022-10-31T16:41:53.833Z,16.80
2022-10-31T16:44:35.985Z,16.78
2022-10-31T16:47:11.338Z,16.76
2022-10-31T16:49:39.918Z,16.72
2022-10-31T16:52:08.239Z,16.70
2022-10-31T16:54:35.283Z,16.67
2022-10-31T16:57:05.014Z,16.63
2022-10-31T16:59:34.351Z,16.59
2022-10-31T17:02:02.352Z,16.56
2022-10-31T17:04:32.647Z,16.52
2022-10-31T17:07:00.792Z,16.49
2022-10-31T17:09:27.474Z,16.45
2022-10-31T17:11:55.252Z,16.41
2022-10-31T17:14:22.228Z,16.37
2022-10-31T17:16:49.278Z,16.34
2022-10-31T17:19:16.847Z,16.31
2022-10-31T17:21:43.616Z,16.28
2022-10-31T17:24:14.955Z,16.25
2022-10-31T17:26:44.752Z,16.23
2022-10-31T17:29:11.562Z,16.21
2022-10-31T17:31:39.397Z,16.20
2022-10-31T17:34:07.273Z,16.17
2022-10-31T17:36:34.677Z,16.15
2022-10-31T17:39:01.846Z,16.12
2022-10-31T17:41:34.248Z,16.11
2022-10-31T17:44:01.125Z,16.09
2022-10-31T17:46:28.559Z,16.08
2022-10-31T17:48:55.742Z,16.07
2022-10-31T17:51:22.608Z,16.07
2022-10-31T17:53:50.863Z,16.05
2022-10-31T17:56:18.194Z,16.04
2022-10-31T17:58:46.427Z,16.04
2022-10-31T18:01:15.536Z,16.04
2022-10-31T18:03:42.721Z,16.01
2022-10-31T18:06:10.585Z,16.00
2022-10-31T18:08:40.867Z,15.99
2022-10-31T18:11:09.846Z,15.98
2022-10-31T18:13:40.465Z,15.96
2022-10-31T18:16:10.130Z,15.93
2022-10-31T18:18:41.764Z,15.92
2022-10-31T18:21:08.867Z,15.89
2022-10-31T18:23:36.551Z,15.88
2022-10-31T18:26:03.799Z,15.85
2022-10-31T18:28:30.549Z,15.84
2022-10-31T18:30:58.841Z,15.83
2022-10-31T18:33:27.627Z,15.81
2022-10-31T18:35:54.261Z,15.78
2022-10-31T18:38:24.190Z,15.77
2022-10-31T18:40:51.673Z,15.75
2022-10-31T18:43:19.065Z,15.74
2022-10-31T18:45:48.105Z,15.73
2022-10-31T18:48:17.470Z,15.73
2022-10-31T18:50:46.200Z,15.72
2022-10-31T18:53:15.349Z,15.70
2022-10-31T18:55:45.743Z,15.70
2022-10-31T18:58:19.345Z,15.70
2022-10-31T19:00:46.620Z,15.68
2022-10-31T19:03:20.730Z,15.66
2022-10-31T19:05:54.829Z,15.63
2022-10-31T19:08:21.988Z,15.61
2022-10-31T19:10:51.507Z,15.62
2022-10-31T19:13:18.406Z,15.59
2022-10-31T19:15:45.530Z,15.58
2022-10-31T19:18:12.243Z,15.60
2022-10-31T19:20:40.674Z,15.59
2022-10-31T19:23:09.044Z,15.59
2022-10-31T19:25:36.187Z,15.58
2022-10-31T19:28:03.516Z,15.56
2022-10-31T19:30:30.897Z,15.52
2022-10-31T19:32:57.651Z,15.48
2022-10-31T19:35:25.609Z,15.45
2022-10-31T19:37:52.918Z,15.41
2022-10-31T19:40:21.183Z,15.36
2022-10-31T19:42:48.658Z,15.34
2022-10-31T19:45:15.414Z,15.29
2022-10-31T19:47:43.106Z,15.26
2022-10-31T19:50:10.330Z,15.24
2022-10-31T19:52:37.057Z,15.22
2022-10-31T19:55:04.579Z,15.19
2022-10-31T19:57:56.658Z,15.17
2022-10-31T20:00:25.165Z,15.13
2022-10-31T20:02:55.132Z,15.10
2022-10-31T20:05:24.927Z,15.08
2022-10-31T20:07:51.834Z,15.04
2022-10-31T20:10:18.724Z,15.01
2022-10-31T20:12:46.840Z,15.00
2022-10-31T20:15:13.682Z,14.97
2022-10-31T20:17:41.444Z,14.94
2022-10-31T20:20:09.522Z,14.91
2022-10-31T20:22:36.986Z,14.86
2022-10-31T20:25:05.422Z,14.82
2022-10-31T20:27:32.844Z,14.80
2022-10-31T20:30:01.715Z,14.76
2022-10-31T20:32:28.869Z,14.72
2022-10-31T20:34:55.840Z,14.68
2022-10-31T20:37:27.379Z,14.66
2022-10-31T20:40:01.982Z,14.65
2022-10-31T20:42:29.055Z,14.61
2022-10-31T20:44:55.939Z,14.56
2022-10-31T20:47:25.855Z,14.52
2022-10-31T20:49:53.201Z,14.46
2022-10-31T20:52:20.350Z,14.43
2022-10-31T20:54:47.172Z,14.41
2022-10-31T20:57:13.894Z,14.38
2022-10-31T20:59:40.614Z,14.38
2022-10-31T21:02:07.403Z,14.36
2022-10-31T21:04:36.633Z,14.35
2022-10-31T21:07:03.859Z,14.35
2022-10-31T21:09:30.572Z,14.33
2022-10-31T21:11:57.446Z,14.29
2022-10-31T21:14:24.310Z,14.26
2022-10-31T21:16:53.301Z,14.25
2022-10-31T21:19:20.405Z,14.24
2022-10-31T21:21:48.946Z,14.24
2022-10-31T21:26:52.251Z,14.19
2022-10-31T21:29:20.260Z,14.19
2022-10-31T21:31:48.347Z,14.19
2022-10-31T21:34:15.862Z,14.20
2022-10-31T21:36:43.971Z,14.21
2022-10-31T21:39:13.932Z,14.23
2022-10-31T21:41:42.360Z,14.25
2022-10-31T21:44:10.132Z,14.25
2022-10-31T21:46:39.198Z,14.27
2022-10-31T21:49:07.099Z,14.28
2022-10-31T21:51:36.825Z,14.27
2022-10-31T21:54:23.110Z,14.27
2022-10-31T21:56:51.862Z,14.26
2022-10-31T21:59:18.403Z,14.25
2022-10-31T22:01:45.521Z,14.24
2022-10-31T22:04:14.330Z,14.25
2022-10-31T22:06:40.797Z,14.23
2022-10-31T22:09:12.137Z,14.24
2022-10-31T22:11:39.296Z,14.24
2022-10-31T22:14:07.982Z,14.25
2022-10-31T22:16:36.311Z,14.25
2022-10-31T22:19:05.867Z,14.26
2022-10-31T22:21:37.686Z,14.28
2022-10-31T22:24:05.223Z,14.30
2022-10-31T22:26:36.993Z,14.34
2022-10-31T22:29:05.257Z,14.36
2022-10-31T22:31:34.302Z,14.37
2022-10-31T22:34:01.266Z,14.38
2022-10-31T22:36:29.691Z,14.40
2022-10-31T22:38:57.923Z,14.39
2022-10-31T22:41:27.717Z,14.42
2022-10-31T22:43:55.433Z,14.42
2022-10-31T22:46:24.527Z,14.42
2022-10-31T22:48:59.919Z,14.43
2022-10-31T22:51:29.019Z,14.43
2022-10-31T22:53:56.790Z,14.42
2022-10-31T22:56:26.607Z,14.43
2022-10-31T22:58:53.960Z,14.45
2022-10-31T23:01:22.637Z,14.44
2022-10-31T23:03:49.740Z,14.44
2022-10-31T23:06:20.442Z,14.45
2022-10-31T23:08:47.967Z,14.47
2022-10-31T23:11:19.131Z,14.48
2022-10-31T23:14:04.713Z,14.50
2022-10-31T23:16:31.875Z,14.50
2022-10-31T23:18:59.068Z,14.54
2022-10-31T23:21:46.461Z,14.54
2022-10-31T23:24:13.298Z,14.57
2022-10-31T23:26:59.151Z,14.58
2022-10-31T23:29:25.862Z,14.61
2022-10-31T23:31:54.682Z,14.63
2022-10-31T23:34:21.977Z,14.67
2022-10-31T23:36:50.362Z,14.70
2022-10-31T23:39:19.993Z,14.72
2022-10-31T23:41:50.722Z,14.76
2022-10-31T23:44:18.090Z,14.78
2022-10-31T23:46:45.028Z,14.81
2022-10-31T23:49:11.935Z,14.82
2022-10-31T23:51:39.386Z,14.85
2022-10-31T23:54:07.936Z,14.87
2022-10-31T23:56:36.981Z,14.90
2022-10-31T23:59:04.162Z,14.92
